Aérodrome :
LOGIN :

S'inscrire | Disclaimer

   EN    FR    IT 

 










Légende :    VFR   VFR Marginal   IFR   IFR Intensif   IFR Très Intensif
Visi : 
Plafond : 
>= 8 km
>= 3000ft
5 à 8 km
1000 à 3000 ft
1500m à 5 km
500 à 1000 ft
800 à 1500m
200 à 500 ft
< 800m
< 200 ft
Symboles :   Orages  Brouillard  Fortes neiges  Fortes précipitations  Vent > 20 kt
SIGMETs :   Divers  Orages  Givrage  Turbulence  Onde Orograph.  Cendres Volcan.






- Altitude de l'aérodrome : 885 ft
- Code IATA : BAS


LFSB - Bale-Mulhouse

DERNIER METAR :
  • 202100Z AUTO 32004KT CAVOK 21/19 Q1007 TEMPO 27020G40KT 1500 TSRA BKN040CB

METARs EXPIRÉS :
  • 202030Z AUTO VRB02KT CAVOK 23/19 Q1007 TEMPO 27020G40KT 1500 TSRA BKN040CB
  • 202000Z AUTO 33004KT CAVOK 24/19 Q1008 TEMPO 27020G40KT 1500 TSRA BKN040CB
  • 201930Z AUTO 34005KT CAVOK 25/19 Q1008 TEMPO 27020G40KT 1500 TSRA BKN040CB
  • 201900Z AUTO 33006KT CAVOK 26/19 Q1008 TEMPO 27020G40KT 1500 TSRA BKN040CB
  • 201830Z AUTO VRB03KT CAVOK 29/19 Q1008 TEMPO 27020G40KT 1500 TSRA BKN040CB
  • 201800Z AUTO 05004KT CAVOK 31/17 Q1007 NOSIG
  • 201730Z AUTO 05004KT 030V090 CAVOK 31/16 Q1008 NOSIG
  • 201700Z AUTO 03004KT 350V060 CAVOK 32/15 Q1008 TEMPO FEW070CB
  • 201630Z AUTO 02004KT 350V060 CAVOK 32/16 Q1008 TEMPO FEW070CB

TAF TAF LFSB
Valide du 20 à 18h jusqu'au 21 à 18h UTC


201700Z 2018/2118 VRB05KT CAVOK
TEMPO 2020/2101 VRB15G25KT 3500 SHRA SCT060CB
PROB40
TEMPO 2020/2023 27020G40KT 1500 TSRA BKN040CB
BECMG 2110/2112 FEW040CB
TEMPO 2112/2118 -SHRA
PROB40
TEMPO 2112/2115 VRB15G25KT 4000 SHRA SCT030CB
Météo : +33 3 89 90 31 11



MET'MAP, la Météo Aéronautique d'un coup d'oeil ! - Copyright ORBIFLY Décembre 2007 - Disclaimer

ORBIFLY MET'MAP TEAM :

Programmation & Développement : Alexandra Zaïnal
Sur une idée originale de : Baudouin d'Aumeries
Soutien technique & logistique : Manuel Goepfert
Assistance : Marc-Olivier Méhu




SOURCES & CREDITS :

   NOAA